Time;durP1;ratioP1;P1;durP2;ratioP2;P2;SDS_P1;SDS_P2;PMS_P1;PMS_P2;Temp;Humidity;BMP_temperature;BMP_pressure;BME280_temperature;BME280_humidity;BME280_pressure;Samples;Min_cycle;Max_cycle;Signal;HPM_P1;HPM_P2
2022/08/05 00:01:23;;;;;;;1.48;0.70;;;16.60;51.30;;;;;;5063982;28;20206;-39
2022/08/05 00:03:54;;;;;;;1.33;0.80;;;16.60;51.30;;;;;;5073552;28;20195;-41
2022/08/05 00:06:25;;;;;;;0.88;0.70;;;16.60;51.30;;;;;;5072913;28;20194;-36
2022/08/05 00:08:56;;;;;;;2.13;1.00;;;16.60;51.30;;;;;;5073199;28;20187;-39
2022/08/05 00:11:29;;;;;;;2.17;0.80;;;16.60;51.30;;;;;;5073439;28;20186;-37
2022/08/05 00:14:00;;;;;;;0.98;0.82;;;16.60;51.30;;;;;;5073371;28;20286;-36
2022/08/05 00:16:30;;;;;;;1.10;0.88;;;16.60;51.30;;;;;;5073400;28;20191;-38
2022/08/05 00:19:01;;;;;;;1.30;0.80;;;16.60;51.40;;;;;;5073293;28;20229;-36
2022/08/05 00:21:32;;;;;;;1.83;0.70;;;16.70;51.40;;;;;;5073103;28;20194;-46
2022/08/05 00:24:02;;;;;;;1.30;0.80;;;16.70;51.30;;;;;;5072839;28;20215;-41
2022/08/05 00:26:35;;;;;;;0.80;0.73;;;16.70;51.20;;;;;;5073062;28;20195;-41
2022/08/05 00:29:06;;;;;;;0.68;0.55;;;16.70;51.20;;;;;;5072105;28;20722;-36
2022/08/05 00:31:37;;;;;;;1.10;0.73;;;16.70;51.10;;;;;;5071862;28;20548;-51
2022/08/05 00:34:08;;;;;;;1.80;0.57;;;16.70;51.00;;;;;;5068093;28;20572;-36
2022/08/05 00:36:38;;;;;;;1.60;0.80;;;16.70;51.00;;;;;;5074900;28;20648;-36
2022/08/05 00:39:09;;;;;;;0.82;0.70;;;16.70;50.80;;;;;;5091861;28;20210;-40
2022/08/05 00:41:42;;;;;;;0.68;0.68;;;16.70;50.70;;;;;;5092798;28;20191;-37
2022/08/05 00:44:12;;;;;;;1.95;0.85;;;16.70;50.70;;;;;;5092076;28;20214;-37
2022/08/05 00:46:43;;;;;;;1.67;0.73;;;16.80;50.70;;;;;;5092683;28;20209;-37
2022/08/05 00:49:17;;;;;;;1.45;0.70;;;16.80;50.70;;;;;;5074849;28;20202;-36
2022/08/05 00:51:48;;;;;;;1.02;0.60;;;16.80;50.60;;;;;;5068013;28;20195;-36
2022/08/05 00:54:19;;;;;;;1.10;0.68;;;16.80;50.60;;;;;;5051948;28;20718;-36
2022/08/05 00:56:51;;;;;;;1.85;0.82;;;16.80;50.60;;;;;;5064365;28;20674;-36
2022/08/05 00:59:22;;;;;;;1.70;0.70;;;16.80;50.50;;;;;;5072321;28;20230;-37
2022/08/05 01:01:53;;;;;;;3.05;0.80;;;16.80;50.50;;;;;;5072638;28;20662;-36
2022/08/05 01:04:24;;;;;;;1.02;0.50;;;16.90;50.50;;;;;;5072591;28;20218;-36
2022/08/05 01:06:54;;;;;;;1.08;0.70;;;16.80;50.40;;;;;;5071916;28;20191;-37
2022/08/05 01:09:26;;;;;;;0.85;0.70;;;16.80;50.50;;;;;;5072891;28;20195;-36
2022/08/05 01:12:04;;;;;;;0.50;0.50;;;16.90;50.80;;;;;;5072122;28;20199;-37
2022/08/05 01:14:41;;;;;;;1.83;0.50;;;16.90;50.80;;;;;;5072161;28;20219;-36
2022/08/05 01:17:13;;;;;;;2.15;0.50;;;17.00;50.80;;;;;;5065353;28;20574;-36
2022/08/05 01:19:47;;;;;;;1.15;0.50;;;17.00;50.70;;;;;;5071961;28;20237;-36
2022/08/05 01:22:39;;;;;;;0.98;0.50;;;17.00;50.70;;;;;;5071613;28;20195;-36
2022/08/05 01:25:39;;;;;;;1.10;0.50;;;17.00;50.70;;;;;;5071547;28;20219;-36
2022/08/05 01:28:30;;;;;;;0.80;0.43;;;17.00;50.70;;;;;;5071636;28;20202;-36
2022/08/05 01:31:09;;;;;;;0.95;0.50;;;17.10;50.70;;;;;;5072594;28;20571;-36
2022/08/05 01:33:49;;;;;;;3.13;0.80;;;17.10;50.60;;;;;;5070806;28;20230;-36
2022/08/05 01:36:23;;;;;;;1.55;0.50;;;17.10;50.60;;;;;;5061714;28;20190;-36
2022/08/05 01:38:56;;;;;;;1.27;0.45;;;17.10;50.60;;;;;;5076162;28;20214;-36
2022/08/05 01:41:28;;;;;;;0.60;0.50;;;17.10;50.70;;;;;;5070467;28;20201;-36
2022/08/05 01:44:02;;;;;;;0.73;0.50;;;17.10;50.70;;;;;;5071700;28;20202;-36
2022/08/05 01:46:34;;;;;;;0.50;0.45;;;17.10;50.70;;;;;;5071420;28;20187;-36
2022/08/05 01:49:07;;;;;;;0.90;0.60;;;17.10;50.70;;;;;;5071327;28;20532;-36
2022/08/05 01:51:41;;;;;;;0.82;0.50;;;17.20;50.80;;;;;;5071062;28;20183;-36
2022/08/05 01:54:13;;;;;;;0.35;0.30;;;17.20;50.80;;;;;;5071188;28;20301;-37
2022/08/05 01:56:45;;;;;;;0.73;0.50;;;17.20;50.80;;;;;;5071063;28;20199;-37
2022/08/05 01:59:22;;;;;;;0.52;0.50;;;17.20;50.80;;;;;;5070834;28;20690;-36
2022/08/05 02:01:58;;;;;;;0.50;0.50;;;17.20;50.80;;;;;;5070192;28;20194;-40
2022/08/05 02:04:30;;;;;;;0.63;0.60;;;17.20;50.80;;;;;;5070993;28;20218;-36
2022/08/05 02:07:02;;;;;;;0.35;0.30;;;17.30;50.80;;;;;;5079419;28;20646;-37
2022/08/05 02:09:32;;;;;;;0.30;0.30;;;17.30;50.80;;;;;;5091947;28;20198;-36
2022/08/05 02:12:09;;;;;;;0.50;0.50;;;17.30;50.80;;;;;;5083474;28;20194;-37
2022/08/05 02:14:47;;;;;;;0.60;0.50;;;17.30;50.80;;;;;;5071216;28;20230;-37
2022/08/05 02:17:25;;;;;;;0.75;0.40;;;17.30;50.90;;;;;;5066498;28;20203;-36
2022/08/05 02:20:01;;;;;;;0.55;0.40;;;17.30;50.90;;;;;;5070227;28;20219;-38
2022/08/05 02:22:34;;;;;;;0.55;0.45;;;17.40;50.90;;;;;;5069736;28;20850;-36
2022/08/05 02:25:07;;;;;;;0.52;0.40;;;17.40;50.90;;;;;;5054151;28;20212;-36
2022/08/05 02:27:41;;;;;;;1.15;0.50;;;17.40;51.00;;;;;;5067048;28;20197;-36
2022/08/05 02:30:16;;;;;;;0.47;0.40;;;17.40;50.90;;;;;;5069933;28;20194;-36
2022/08/05 02:32:49;;;;;;;0.40;0.40;;;17.40;50.90;;;;;;5070897;28;20193;-38
2022/08/05 02:35:29;;;;;;;0.88;0.50;;;17.50;51.00;;;;;;5069743;28;20226;-40
2022/08/05 02:38:02;;;;;;;1.70;0.60;;;17.40;50.90;;;;;;5059236;28;20668;-39
2022/08/05 02:40:33;;;;;;;0.40;0.40;;;17.50;51.00;;;;;;5059542;28;20230;-39
2022/08/05 02:43:06;;;;;;;0.73;0.68;;;17.50;50.90;;;;;;5058678;28;20190;-36
2022/08/05 02:45:40;;;;;;;0.85;0.40;;;17.50;51.00;;;;;;5069562;28;20583;-37
2022/08/05 02:48:12;;;;;;;0.30;0.30;;;17.50;51.00;;;;;;5069867;28;20194;-37
2022/08/05 02:50:45;;;;;;;0.70;0.40;;;17.50;51.00;;;;;;5070259;28;20195;-36
2022/08/05 02:53:19;;;;;;;0.80;0.60;;;17.60;51.00;;;;;;5070462;28;20188;-36
2022/08/05 02:55:51;;;;;;;1.20;0.50;;;17.60;51.00;;;;;;5069610;28;20225;-36
2022/08/05 02:58:24;;;;;;;0.40;0.40;;;17.60;51.00;;;;;;5068551;28;20194;-37
2022/08/05 03:00:58;;;;;;;0.30;0.25;;;17.60;51.00;;;;;;5059908;28;20238;-37
2022/08/05 03:03:31;;;;;;;1.15;0.60;;;17.70;50.90;;;;;;5080258;28;20665;-37
2022/08/05 03:06:03;;;;;;;0.77;0.40;;;17.70;50.90;;;;;;5090230;28;20610;-41
2022/08/05 03:08:34;;;;;;;0.52;0.40;;;17.70;50.90;;;;;;5089790;28;20189;-37
2022/08/05 03:11:05;;;;;;;0.30;0.30;;;17.70;50.90;;;;;;5089778;28;20225;-37
2022/08/05 03:13:35;;;;;;;1.08;0.52;;;17.70;50.90;;;;;;5074177;28;20191;-42
2022/08/05 03:16:08;;;;;;;0.60;0.32;;;17.70;50.90;;;;;;5070959;28;20198;-40
2022/08/05 03:18:39;;;;;;;0.70;0.40;;;17.80;50.90;;;;;;5070456;28;20187;-38
2022/08/05 03:21:10;;;;;;;0.60;0.60;;;17.80;50.90;;;;;;5057348;28;20699;-38
2022/08/05 03:23:43;;;;;;;0.68;0.40;;;17.80;50.90;;;;;;5061595;28;20563;-38
2022/08/05 03:26:13;;;;;;;0.30;0.30;;;17.80;50.90;;;;;;5069948;28;20590;-38
2022/08/05 03:28:44;;;;;;;0.40;0.40;;;17.80;50.80;;;;;;5070584;28;20206;-37
2022/08/05 03:31:17;;;;;;;0.40;0.30;;;17.90;50.80;;;;;;5070192;28;20666;-37
2022/08/05 03:33:48;;;;;;;0.47;0.40;;;17.90;50.80;;;;;;5059801;28;20203;-40
2022/08/05 03:36:19;;;;;;;0.40;0.40;;;17.90;50.80;;;;;;5049603;28;20210;-38
2022/08/05 03:38:49;;;;;;;0.80;0.40;;;17.90;50.80;;;;;;5072230;28;20198;-37
2022/08/05 03:41:20;;;;;;;0.60;0.50;;;17.90;50.80;;;;;;5078537;28;20227;-37
2022/08/05 03:43:51;;;;;;;0.77;0.40;;;17.90;50.70;;;;;;5070494;28;20202;-45
2022/08/05 03:46:23;;;;;;;0.38;0.38;;;17.90;50.70;;;;;;5070011;28;20201;-37
2022/08/05 03:48:54;;;;;;;0.63;0.40;;;18.00;50.70;;;;;;5069771;28;20661;-38
2022/08/05 03:51:29;;;;;;;0.50;0.50;;;17.90;50.70;;;;;;5070467;28;20195;-37
2022/08/05 03:54:05;;;;;;;0.52;0.40;;;18.00;50.70;;;;;;5069315;28;20191;-37
2022/08/05 03:56:41;;;;;;;0.63;0.60;;;18.00;50.70;;;;;;5069650;28;20708;-37
2022/08/05 03:59:16;;;;;;;0.45;0.40;;;18.00;50.70;;;;;;5069634;28;20647;-37
2022/08/05 04:01:52;;;;;;;1.70;0.30;;;18.00;50.70;;;;;;5069969;28;20202;-41
2022/08/05 04:04:25;;;;;;;0.40;0.40;;;18.00;50.70;;;;;;5072812;28;20216;-38
2022/08/05 04:06:56;;;;;;;0.30;0.30;;;18.10;50.90;;;;;;5073539;28;20195;-47
2022/08/05 04:09:28;;;;;;;0.60;0.40;;;18.10;51.00;;;;;;5073376;28;20198;-37
2022/08/05 04:11:59;;;;;;;0.93;0.50;;;18.10;51.00;;;;;;5071612;28;20195;-38
2022/08/05 04:14:30;;;;;;;0.32;0.30;;;18.10;51.00;;;;;;5067946;28;20215;-38
2022/08/05 04:17:03;;;;;;;0.30;0.30;;;18.10;50.90;;;;;;5073805;28;20217;-38
2022/08/05 04:19:43;;;;;;;0.60;0.40;;;18.10;50.90;;;;;;5075928;28;20852;-37
2022/08/05 04:22:14;;;;;;;0.55;0.40;;;18.10;50.90;;;;;;5073472;28;20198;-37
2022/08/05 04:24:45;;;;;;;0.55;0.40;;;18.10;50.90;;;;;;5070348;28;20211;-38
2022/08/05 04:27:16;;;;;;;0.45;0.45;;;18.10;50.90;;;;;;5065725;28;20210;-38
2022/08/05 04:29:47;;;;;;;0.45;0.45;;;18.10;50.90;;;;;;5072849;28;20191;-39
2022/08/05 04:32:19;;;;;;;0.80;0.50;;;18.10;50.90;;;;;;5072354;28;20199;-37
2022/08/05 04:34:50;;;;;;;0.57;0.30;;;18.10;50.80;;;;;;5072659;28;20218;-37
2022/08/05 04:37:21;;;;;;;0.50;0.50;;;18.10;50.80;;;;;;5072959;28;20202;-37
2022/08/05 04:39:51;;;;;;;0.50;0.50;;;18.10;50.70;;;;;;5073171;28;20221;-48
2022/08/05 04:42:22;;;;;;;0.40;0.32;;;18.10;50.70;;;;;;5072299;28;20553;-37
2022/08/05 04:44:53;;;;;;;0.55;0.50;;;18.20;50.70;;;;;;5072681;28;20211;-43
2022/08/05 04:47:25;;;;;;;1.40;0.40;;;18.20;50.70;;;;;;5072827;28;20205;-49
2022/08/05 04:49:56;;;;;;;0.40;0.40;;;18.20;50.70;;;;;;5072601;28;20804;-41
2022/08/05 04:52:27;;;;;;;0.70;0.38;;;18.20;50.70;;;;;;5069014;28;20250;-40
2022/08/05 04:54:58;;;;;;;1.50;0.50;;;18.30;50.70;;;;;;5069278;28;20211;-37
2022/08/05 04:57:28;;;;;;;0.90;0.50;;;18.20;50.60;;;;;;5072921;28;20217;-37
2022/08/05 04:59:59;;;;;;;0.38;0.30;;;18.20;50.60;;;;;;5072402;28;20298;-37
2022/08/05 05:02:32;;;;;;;0.95;0.60;;;18.30;50.70;;;;;;5072665;28;20199;-41
2022/08/05 05:05:02;;;;;;;0.50;0.40;;;18.20;50.60;;;;;;5081003;28;20588;-37
2022/08/05 05:07:33;;;;;;;0.40;0.40;;;18.30;50.70;;;;;;5072376;28;20206;-37
2022/08/05 05:10:04;;;;;;;0.52;0.50;;;18.30;50.70;;;;;;5072120;28;20191;-37
2022/08/05 05:12:35;;;;;;;0.50;0.40;;;18.20;50.60;;;;;;5071839;28;20245;-37
2022/08/05 05:15:06;;;;;;;0.40;0.40;;;18.30;50.60;;;;;;5071467;28;20690;-36
2022/08/05 05:17:43;;;;;;;0.60;0.40;;;18.20;50.60;;;;;;5072451;28;20693;-36
2022/08/05 05:20:15;;;;;;;0.55;0.47;;;18.20;50.50;;;;;;5072369;28;20210;-38
2022/08/05 05:22:46;;;;;;;0.73;0.60;;;18.20;50.50;;;;;;5071892;28;20221;-37
2022/08/05 05:25:16;;;;;;;0.93;0.40;;;18.20;50.40;;;;;;5071766;28;20291;-44
2022/08/05 05:27:47;;;;;;;0.43;0.43;;;18.20;50.40;;;;;;5071797;28;20781;-37
2022/08/05 05:30:18;;;;;;;0.30;0.30;;;18.20;50.30;;;;;;5072137;28;20218;-44
2022/08/05 05:32:51;;;;;;;1.00;0.60;;;18.20;50.30;;;;;;5071981;28;20195;-37
2022/08/05 05:35:22;;;;;;;0.45;0.38;;;18.20;50.80;;;;;;5072409;28;20234;-39
2022/08/05 05:37:55;;;;;;;2.05;0.40;;;18.30;50.20;;;;;;5071985;28;20206;-40
2022/08/05 05:40:27;;;;;;;0.28;0.28;;;18.30;50.20;;;;;;5070577;28;20241;-38
2022/08/05 05:42:58;;;;;;;0.60;0.47;;;18.20;50.20;;;;;;5071593;28;20201;-45
2022/08/05 05:45:29;;;;;;;0.73;0.30;;;18.30;50.20;;;;;;5071449;28;20220;-37
2022/08/05 05:48:04;;;;;;;0.47;0.40;;;18.20;50.20;;;;;;5072166;28;20654;-38
2022/08/05 05:50:38;;;;;;;0.30;0.30;;;18.20;50.10;;;;;;5071008;28;20320;-37
2022/08/05 05:53:10;;;;;;;0.40;0.40;;;18.20;50.10;;;;;;5071781;28;20198;-36
2022/08/05 05:55:41;;;;;;;0.40;0.30;;;18.20;50.00;;;;;;5071004;28;20219;-41
2022/08/05 05:58:12;;;;;;;0.20;0.20;;;18.20;50.00;;;;;;5051920;28;20200;-38
2022/08/05 06:00:42;;;;;;;1.38;0.40;;;18.20;50.00;;;;;;5070709;28;20223;-52
2022/08/05 06:03:15;;;;;;;0.38;0.38;;;18.20;50.00;;;;;;5071211;28;20206;-43
2022/08/05 06:05:45;;;;;;;0.45;0.40;;;18.20;49.90;;;;;;5071236;28;20214;-52
2022/08/05 06:08:16;;;;;;;0.80;0.60;;;18.20;49.90;;;;;;5070184;28;20583;-56
2022/08/05 06:10:47;;;;;;;0.50;0.30;;;18.20;49.90;;;;;;5071108;28;20622;-59
2022/08/05 06:13:17;;;;;;;0.40;0.38;;;18.20;49.90;;;;;;5058170;28;20199;-47
2022/08/05 06:15:48;;;;;;;0.77;0.40;;;18.20;49.90;;;;;;5069790;28;20214;-37
2022/08/05 06:18:21;;;;;;;0.73;0.35;;;18.10;49.90;;;;;;5070959;28;20183;-37
2022/08/05 06:20:52;;;;;;;1.20;0.60;;;18.20;49.90;;;;;;5090252;28;20222;-37
2022/08/05 06:23:23;;;;;;;0.60;0.40;;;18.10;49.90;;;;;;5090798;28;20271;-37
2022/08/05 06:25:54;;;;;;;0.63;0.40;;;18.10;49.90;;;;;;5089903;28;20217;-37
2022/08/05 06:28:24;;;;;;;0.80;0.40;;;18.10;50.00;;;;;;5070327;28;20195;-40
2022/08/05 06:30:55;;;;;;;0.57;0.38;;;18.10;49.90;;;;;;5070955;28;20563;-37
2022/08/05 06:33:27;;;;;;;0.63;0.55;;;18.10;49.90;;;;;;5071109;28;20203;-43
2022/08/05 06:35:58;;;;;;;0.60;0.50;;;18.20;50.00;;;;;;5069925;28;20211;-45
2022/08/05 06:38:29;;;;;;;0.98;0.40;;;18.10;49.90;;;;;;5069948;28;20202;-36
2022/08/05 06:41:00;;;;;;;0.40;0.40;;;18.10;49.90;;;;;;5070445;28;20227;-37
2022/08/05 06:43:31;;;;;;;0.40;0.32;;;18.10;50.50;;;;;;5070927;28;20206;-36
2022/08/05 06:46:02;;;;;;;0.50;0.43;;;18.10;50.60;;;;;;5070539;28;20210;-39
2022/08/05 06:48:34;;;;;;;0.77;0.52;;;18.10;50.00;;;;;;5071189;28;20195;-36
2022/08/05 06:51:06;;;;;;;0.45;0.45;;;18.10;50.00;;;;;;5070129;28;20198;-37
2022/08/05 06:53:36;;;;;;;0.38;0.38;;;18.10;50.00;;;;;;5070360;28;20210;-36
2022/08/05 06:56:07;;;;;;;0.50;0.50;;;18.10;50.00;;;;;;5070921;28;20720;-44
2022/08/05 06:58:38;;;;;;;0.43;0.40;;;18.10;50.00;;;;;;5070198;28;20194;-36
2022/08/05 07:01:09;;;;;;;0.63;0.40;;;18.10;50.10;;;;;;5070844;28;20297;-39
2022/08/05 07:03:42;;;;;;;0.40;0.40;;;18.10;50.00;;;;;;5070145;28;20195;-36
2022/08/05 07:06:13;;;;;;;1.30;0.50;;;18.10;50.00;;;;;;5070303;28;20560;-40
2022/08/05 07:08:43;;;;;;;0.38;0.35;;;18.10;50.00;;;;;;5070110;28;20565;-36
2022/08/05 07:11:14;;;;;;;0.40;0.40;;;18.10;49.90;;;;;;5070217;28;20445;-36
2022/08/05 07:16:50;;;;;;;0.40;0.40;;;18.10;50.00;;;;;;5051362;28;20654;-38
2022/08/05 07:19:24;;;;;;;0.50;0.40;;;18.10;50.00;;;;;;5069919;28;20286;-36
2022/08/05 07:21:56;;;;;;;0.40;0.38;;;18.00;49.90;;;;;;5068918;28;20301;-41
2022/08/05 07:24:27;;;;;;;0.40;0.40;;;18.00;49.90;;;;;;5064074;28;20242;-36
2022/08/05 07:26:58;;;;;;;0.63;0.60;;;18.00;49.90;;;;;;5070906;28;20256;-39
2022/08/05 07:29:29;;;;;;;1.15;0.50;;;18.00;49.90;;;;;;5070894;28;20194;-36
2022/08/05 07:32:00;;;;;;;1.83;0.60;;;18.00;50.00;;;;;;5070611;28;20206;-41
2022/08/05 07:34:32;;;;;;;0.47;0.47;;;18.00;50.00;;;;;;5070922;28;20273;-39
2022/08/05 07:37:03;;;;;;;0.57;0.35;;;18.00;50.00;;;;;;5070383;28;20256;-36
2022/08/05 07:39:34;;;;;;;0.40;0.40;;;18.00;49.90;;;;;;5073885;28;20202;-42
2022/08/05 07:42:05;;;;;;;0.60;0.40;;;18.00;49.90;;;;;;5074796;28;20626;-42
2022/08/05 07:44:35;;;;;;;0.60;0.50;;;18.00;49.90;;;;;;5074393;28;20588;-37
2022/08/05 07:47:06;;;;;;;0.93;0.63;;;18.00;49.90;;;;;;5074349;28;20218;-36
2022/08/05 07:49:39;;;;;;;1.33;0.50;;;18.00;49.90;;;;;;5074484;28;20195;-37
2022/08/05 07:52:09;;;;;;;0.50;0.40;;;18.00;49.90;;;;;;5074261;28;20202;-36
2022/08/05 07:54:40;;;;;;;1.17;0.47;;;18.00;49.90;;;;;;5074071;28;20210;-36
2022/08/05 07:57:11;;;;;;;0.50;0.38;;;18.00;50.00;;;;;;5074054;28;20559;-37
2022/08/05 07:59:41;;;;;;;0.40;0.40;;;18.00;50.00;;;;;;5074144;28;20559;-36
2022/08/05 08:02:13;;;;;;;0.50;0.50;;;18.00;50.00;;;;;;5073826;28;20237;-39
2022/08/05 08:04:45;;;;;;;1.02;0.40;;;18.00;50.00;;;;;;5073926;28;20219;-36
2022/08/05 08:07:16;;;;;;;0.45;0.45;;;18.00;50.00;;;;;;5074213;28;20191;-36
2022/08/05 08:09:47;;;;;;;0.50;0.40;;;18.00;50.00;;;;;;5073854;28;20194;-37
2022/08/05 08:12:18;;;;;;;0.60;0.40;;;18.00;50.00;;;;;;5074272;28;20206;-36
2022/08/05 08:14:49;;;;;;;0.40;0.40;;;18.00;50.00;;;;;;5073913;28;20724;-37
2022/08/05 08:17:19;;;;;;;0.50;0.40;;;18.00;50.00;;;;;;5073710;28;20198;-43
2022/08/05 08:19:52;;;;;;;0.32;0.32;;;18.00;50.00;;;;;;5072891;28;20191;-36
2022/08/05 08:22:28;;;;;;;0.55;0.30;;;18.00;50.10;;;;;;5073092;28;20219;-36
2022/08/05 08:24:59;;;;;;;0.70;0.40;;;18.00;50.10;;;;;;5073250;28;20233;-36
2022/08/05 08:27:29;;;;;;;1.02;0.65;;;18.00;50.10;;;;;;5073260;28;20207;-36
2022/08/05 08:30:00;;;;;;;0.55;0.35;;;18.00;50.20;;;;;;5072058;28;20194;-37
2022/08/05 08:32:31;;;;;;;0.60;0.40;;;18.00;50.20;;;;;;5063407;28;20202;-36
2022/08/05 08:35:08;;;;;;;0.40;0.40;;;18.00;50.20;;;;;;5072141;28;20229;-52
2022/08/05 08:37:39;;;;;;;0.60;0.60;;;18.00;50.20;;;;;;5073524;28;20205;-37
2022/08/05 08:40:10;;;;;;;0.55;0.50;;;18.00;50.20;;;;;;5069085;28;20205;-43
2022/08/05 08:42:41;;;;;;;0.32;0.32;;;18.00;50.30;;;;;;5073376;28;20223;-40
2022/08/05 08:45:13;;;;;;;1.50;0.60;;;18.00;50.20;;;;;;5070903;28;20218;-36
2022/08/05 08:47:47;;;;;;;1.27;0.50;;;18.00;50.30;;;;;;5052916;28;20278;-36
2022/08/05 08:50:22;;;;;;;0.88;0.50;;;18.00;50.40;;;;;;5075712;28;20190;-38
2022/08/05 08:52:56;;;;;;;0.60;0.50;;;18.00;50.40;;;;;;5093273;28;20205;-39
2022/08/05 08:55:27;;;;;;;1.48;0.40;;;18.00;50.50;;;;;;5092275;28;20214;-36
2022/08/05 08:57:58;;;;;;;0.30;0.30;;;18.00;50.50;;;;;;5068143;28;20200;-37
2022/08/05 09:00:29;;;;;;;0.80;0.50;;;18.10;50.60;;;;;;5063945;28;20906;-37
2022/08/05 09:03:00;;;;;;;0.43;0.35;;;18.10;50.50;;;;;;5072247;28;20223;-36
2022/08/05 09:05:33;;;;;;;0.60;0.52;;;18.10;50.50;;;;;;5072320;28;20293;-37
2022/08/05 09:08:03;;;;;;;0.30;0.30;;;18.10;50.50;;;;;;5072453;28;20199;-40
2022/08/05 09:10:34;;;;;;;0.38;0.35;;;18.10;50.50;;;;;;5072872;28;20194;-46
2022/08/05 09:13:05;;;;;;;0.40;0.40;;;18.10;50.50;;;;;;5072333;28;20202;-38
2022/08/05 09:15:36;;;;;;;0.82;0.50;;;18.10;50.50;;;;;;5072473;28;20211;-43
2022/08/05 09:18:09;;;;;;;0.43;0.30;;;18.10;50.50;;;;;;5072411;28;20679;-36
2022/08/05 09:20:43;;;;;;;0.65;0.40;;;18.10;50.50;;;;;;5072323;28;20226;-40
2022/08/05 09:23:16;;;;;;;0.30;0.30;;;18.10;50.50;;;;;;5071386;28;20313;-37
2022/08/05 09:25:48;;;;;;;1.00;0.57;;;18.10;50.60;;;;;;5071744;28;20210;-37
2022/08/05 09:28:23;;;;;;;0.52;0.50;;;18.10;50.60;;;;;;5071162;28;20195;-43
2022/08/05 09:30:59;;;;;;;0.40;0.40;;;18.10;50.60;;;;;;5071579;28;20554;-41
2022/08/05 09:33:30;;;;;;;0.82;0.40;;;18.10;50.60;;;;;;5071986;28;20294;-36
2022/08/05 09:36:04;;;;;;;1.50;0.40;;;18.10;50.60;;;;;;5071413;28;20211;-37
2022/08/05 09:38:35;;;;;;;0.60;0.40;;;18.10;50.60;;;;;;5072198;28;20198;-37
2022/08/05 09:41:08;;;;;;;0.85;0.40;;;18.20;50.60;;;;;;5070745;28;20202;-36
2022/08/05 09:43:40;;;;;;;0.50;0.50;;;18.10;50.60;;;;;;5071570;28;20277;-41
2022/08/05 09:46:27;;;;;;;0.47;0.40;;;18.10;50.60;;;;;;5070922;28;20692;-36
2022/08/05 09:48:59;;;;;;;0.88;0.40;;;18.20;50.60;;;;;;5070908;28;20252;-36
2022/08/05 09:51:38;;;;;;;0.90;0.40;;;18.20;50.60;;;;;;5071267;28;20209;-36
2022/08/05 09:54:10;;;;;;;1.15;0.40;;;18.20;50.60;;;;;;5071775;28;20288;-37
2022/08/05 09:56:41;;;;;;;0.60;0.47;;;18.20;50.60;;;;;;5071310;28;20658;-36
2022/08/05 09:59:15;;;;;;;0.50;0.50;;;18.20;50.60;;;;;;5071738;28;20206;-37
2022/08/05 10:01:47;;;;;;;0.40;0.40;;;18.20;50.70;;;;;;5070263;28;20265;-36
2022/08/05 10:04:18;;;;;;;0.30;0.30;;;18.20;50.70;;;;;;5071417;28;20237;-42
2022/08/05 10:06:59;;;;;;;0.43;0.30;;;18.20;50.70;;;;;;5071372;28;20195;-36
2022/08/05 10:09:30;;;;;;;2.53;0.50;;;18.20;50.70;;;;;;5070778;28;20186;-36
2022/08/05 10:12:11;;;;;;;0.40;0.40;;;18.20;50.60;;;;;;5070661;28;20202;-36
2022/08/05 10:14:42;;;;;;;0.75;0.40;;;18.20;50.70;;;;;;5070977;28;20218;-40
2022/08/05 10:17:17;;;;;;;0.50;0.40;;;18.20;50.70;;;;;;5071871;28;20206;-40
2022/08/05 10:19:48;;;;;;;0.30;0.30;;;18.20;50.70;;;;;;5070444;28;20221;-48
2022/08/05 10:22:20;;;;;;;0.98;0.57;;;18.30;50.70;;;;;;5070577;28;20237;-47
2022/08/05 10:24:51;;;;;;;1.23;0.43;;;18.30;50.70;;;;;;5071853;28;20218;-36
2022/08/05 10:27:22;;;;;;;0.50;0.40;;;18.20;50.70;;;;;;5077076;28;20581;-41
2022/08/05 10:29:52;;;;;;;0.50;0.35;;;18.30;50.80;;;;;;5071254;28;20605;-40
2022/08/05 10:32:24;;;;;;;0.95;0.50;;;18.30;50.80;;;;;;5071149;28;20214;-55
2022/08/05 10:34:57;;;;;;;0.80;0.50;;;18.30;50.80;;;;;;5060751;28;20212;-37
2022/08/05 10:37:31;;;;;;;0.30;0.30;;;18.30;50.80;;;;;;5051528;28;20234;-38
2022/08/05 10:40:05;;;;;;;0.32;0.32;;;18.30;50.80;;;;;;5050341;28;20538;-37
2022/08/05 10:42:39;;;;;;;0.40;0.30;;;18.30;50.80;;;;;;5049573;28;20686;-37
2022/08/05 10:45:10;;;;;;;0.50;0.40;;;18.30;50.80;;;;;;5049415;28;20227;-37
2022/08/05 10:47:43;;;;;;;0.82;0.40;;;18.30;50.80;;;;;;5049781;28;20207;-37
2022/08/05 10:50:15;;;;;;;1.05;0.60;;;18.30;50.90;;;;;;5071754;28;20190;-36
2022/08/05 10:52:52;;;;;;;0.80;0.40;;;18.40;50.90;;;;;;5090185;28;20194;-37
2022/08/05 10:55:23;;;;;;;0.65;0.35;;;18.30;50.90;;;;;;5089845;28;20297;-36
2022/08/05 10:58:12;;;;;;;0.45;0.40;;;18.30;50.90;;;;;;5071511;28;20199;-37
2022/08/05 11:00:48;;;;;;;1.65;0.45;;;18.30;50.90;;;;;;5069613;28;20197;-36
2022/08/05 11:03:19;;;;;;;0.60;0.50;;;18.40;51.00;;;;;;5069087;28;20237;-47
2022/08/05 11:06:05;;;;;;;0.30;0.30;;;18.40;51.00;;;;;;5069826;28;20218;-41
2022/08/05 11:08:38;;;;;;;0.63;0.40;;;18.30;51.00;;;;;;5069813;28;20191;-37
2022/08/05 11:11:35;;;;;;;0.57;0.40;;;18.40;51.00;;;;;;5069396;28;20198;-37
2022/08/05 11:14:06;;;;;;;0.68;0.50;;;18.30;51.00;;;;;;5073810;28;20324;-37
2022/08/05 11:16:37;;;;;;;0.40;0.40;;;18.40;51.00;;;;;;5073820;28;20199;-37
2022/08/05 11:19:30;;;;;;;0.55;0.40;;;18.40;51.00;;;;;;5073746;28;20194;-36
2022/08/05 11:22:38;;;;;;;0.52;0.40;;;18.40;51.00;;;;;;5072996;28;20215;-36
2022/08/05 11:25:32;;;;;;;0.98;0.70;;;18.40;51.00;;;;;;5072480;28;20222;-36
2022/08/05 11:28:34;;;;;;;0.30;0.30;;;18.40;51.00;;;;;;5073270;28;20205;-39
2022/08/05 11:31:29;;;;;;;0.40;0.40;;;18.40;51.00;;;;;;5069479;28;20697;-36
2022/08/05 11:34:02;;;;;;;0.75;0.40;;;18.40;51.10;;;;;;5072587;28;20198;-40
2022/08/05 11:36:52;;;;;;;0.40;0.40;;;18.40;51.10;;;;;;5072991;28;20670;-36
2022/08/05 11:39:51;;;;;;;0.40;0.40;;;18.40;51.10;;;;;;5072665;28;20689;-37
2022/08/05 11:42:28;;;;;;;0.55;0.38;;;18.40;51.10;;;;;;5072843;28;20210;-37
2022/08/05 11:45:04;;;;;;;0.77;0.40;;;18.40;51.00;;;;;;5073370;28;20225;-37
2022/08/05 11:47:37;;;;;;;0.98;0.40;;;18.40;51.10;;;;;;5073250;28;20625;-36
2022/08/05 11:50:09;;;;;;;0.45;0.30;;;18.40;51.10;;;;;;5079842;28;20260;-36
2022/08/05 11:52:39;;;;;;;0.65;0.30;;;18.40;51.10;;;;;;5092936;28;20190;-37
2022/08/05 11:55:12;;;;;;;0.60;0.50;;;18.40;51.10;;;;;;5093014;28;20218;-36
2022/08/05 11:57:49;;;;;;;0.50;0.40;;;18.40;51.10;;;;;;5076271;28;20198;-43
2022/08/05 12:00:30;;;;;;;0.40;0.40;;;18.40;51.20;;;;;;5072417;28;20191;-36
2022/08/05 12:03:16;;;;;;;0.70;0.50;;;18.40;51.20;;;;;;5072746;28;20222;-45
2022/08/05 12:05:46;;;;;;;0.47;0.45;;;18.40;51.20;;;;;;5071818;28;20847;-37
2022/08/05 12:08:17;;;;;;;1.30;0.40;;;18.40;51.10;;;;;;5072567;28;20199;-37
2022/08/05 12:10:49;;;;;;;0.40;0.40;;;18.40;51.10;;;;;;5072717;28;20564;-39
2022/08/05 12:13:22;;;;;;;0.50;0.40;;;18.40;51.10;;;;;;5072608;28;20199;-41
2022/08/05 12:15:53;;;;;;;0.38;0.38;;;18.40;51.10;;;;;;5072352;28;20222;-37
2022/08/05 12:18:34;;;;;;;0.50;0.40;;;18.40;51.10;;;;;;5072432;28;20202;-37
2022/08/05 12:21:14;;;;;;;0.55;0.40;;;18.40;51.20;;;;;;5072671;28;20195;-39
2022/08/05 12:23:59;;;;;;;0.55;0.50;;;18.40;51.10;;;;;;5071426;28;20724;-37
2022/08/05 12:26:35;;;;;;;0.68;0.30;;;18.40;51.10;;;;;;5071823;28;20340;-36
2022/08/05 12:29:09;;;;;;;0.50;0.40;;;18.40;51.10;;;;;;5072125;28;20194;-39
2022/08/05 12:31:41;;;;;;;0.40;0.30;;;18.40;51.20;;;;;;5072508;28;20202;-37
2022/08/05 12:34:13;;;;;;;0.60;0.50;;;18.40;51.20;;;;;;5072198;28;20654;-36
2022/08/05 12:36:44;;;;;;;0.38;0.30;;;18.40;51.20;;;;;;5072124;28;20206;-41
2022/08/05 12:39:15;;;;;;;0.50;0.40;;;18.50;51.30;;;;;;5072373;28;20286;-37
2022/08/05 12:41:46;;;;;;;0.20;0.20;;;18.40;51.20;;;;;;5071884;28;20195;-36
2022/08/05 12:44:20;;;;;;;0.70;0.47;;;18.50;51.20;;;;;;5071785;28;20226;-37
2022/08/05 12:46:56;;;;;;;1.25;0.50;;;18.40;51.20;;;;;;5071870;28;20750;-38
2022/08/05 12:49:26;;;;;;;0.70;0.35;;;18.50;51.30;;;;;;5072173;28;20198;-36
2022/08/05 12:52:00;;;;;;;1.02;0.45;;;18.50;51.30;;;;;;5071683;28;20195;-37
2022/08/05 12:54:32;;;;;;;0.50;0.40;;;18.50;51.30;;;;;;5071451;28;20222;-36
2022/08/05 12:57:05;;;;;;;0.63;0.30;;;18.40;51.20;;;;;;5071887;28;20203;-37
2022/08/05 12:59:47;;;;;;;0.35;0.35;;;18.50;51.30;;;;;;5071793;28;20198;-37
2022/08/05 13:02:22;;;;;;;0.40;0.30;;;18.50;51.30;;;;;;5071788;28;20460;-36
2022/08/05 13:04:54;;;;;;;0.30;0.30;;;18.40;51.20;;;;;;5071404;28;20412;-36
2022/08/05 13:07:25;;;;;;;0.55;0.55;;;18.50;51.30;;;;;;5071079;28;20201;-42
2022/08/05 13:09:58;;;;;;;0.38;0.35;;;18.50;51.30;;;;;;5071135;28;20206;-37
2022/08/05 13:12:29;;;;;;;0.95;0.40;;;18.50;51.30;;;;;;5071288;28;20191;-36
2022/08/05 13:15:02;;;;;;;0.55;0.40;;;18.50;51.30;;;;;;5071351;28;20215;-36
2022/08/05 13:17:34;;;;;;;0.60;0.30;;;18.50;51.30;;;;;;5071361;28;20201;-39
2022/08/05 13:20:07;;;;;;;0.70;0.40;;;18.50;51.30;;;;;;5071497;28;20201;-36
2022/08/05 13:22:39;;;;;;;0.47;0.40;;;18.50;51.40;;;;;;5070691;28;20245;-37